Aviation Digital Data Service (ADDS)

Output produced by METARs form (1513 UTC 19 January 2018)
found at http://aviationweather.gov/adds/metars/
 
KLCH 191122Z 1912/2012 VRB05KT P6SM OVC070 
     FM191800 12008KT P6SM OVC060 
     FM200600 13005KT P6SM VCSH OVC025